sensor_id;sensor_type;location;lat;lon;timestamp;temperature;humidity
28763;DHT22;15918;51.270;6.522;2024-02-14T00:02:10;11.50;69.40
28763;DHT22;15918;51.270;6.522;2024-02-14T00:04:36;11.50;69.50
28763;DHT22;15918;51.270;6.522;2024-02-14T00:07:02;11.50;69.50
28763;DHT22;15918;51.270;6.522;2024-02-14T00:09:27;11.60;69.50
28763;DHT22;15918;51.270;6.522;2024-02-14T00:11:53;11.50;69.60
28763;DHT22;15918;51.270;6.522;2024-02-14T00:14:18;11.50;69.70
28763;DHT22;15918;51.270;6.522;2024-02-14T00:16:46;11.60;69.70
28763;DHT22;15918;51.270;6.522;2024-02-14T00:19:12;11.50;70.40
28763;DHT22;15918;51.270;6.522;2024-02-14T00:21:39;11.50;69.70
28763;DHT22;15918;51.270;6.522;2024-02-14T00:24:05;11.50;69.80
28763;DHT22;15918;51.270;6.522;2024-02-14T00:26:31;11.60;69.80
28763;DHT22;15918;51.270;6.522;2024-02-14T00:28:56;11.60;69.90
28763;DHT22;15918;51.270;6.522;2024-02-14T00:31:22;11.50;70.00
28763;DHT22;15918;51.270;6.522;2024-02-14T00:33:47;11.60;70.10
28763;DHT22;15918;51.270;6.522;2024-02-14T00:36:13;11.50;70.00
28763;DHT22;15918;51.270;6.522;2024-02-14T00:38:39;11.50;70.10
28763;DHT22;15918;51.270;6.522;2024-02-14T00:41:04;11.50;70.20
28763;DHT22;15918;51.270;6.522;2024-02-14T00:43:30;11.50;70.40
28763;DHT22;15918;51.270;6.522;2024-02-14T00:45:55;11.50;70.50
28763;DHT22;15918;51.270;6.522;2024-02-14T00:48:24;11.50;70.80
28763;DHT22;15918;51.270;6.522;2024-02-14T00:50:49;11.60;71.00
28763;DHT22;15918;51.270;6.522;2024-02-14T00:53:15;11.50;71.80
28763;DHT22;15918;51.270;6.522;2024-02-14T00:55:41;11.50;70.90
28763;DHT22;15918;51.270;6.522;2024-02-14T00:58:06;11.50;71.00
28763;DHT22;15918;51.270;6.522;2024-02-14T01:00:32;11.50;71.30
28763;DHT22;15918;51.270;6.522;2024-02-14T01:02:58;11.50;71.40
28763;DHT22;15918;51.270;6.522;2024-02-14T01:05:24;11.60;71.30
28763;DHT22;15918;51.270;6.522;2024-02-14T01:07:50;11.60;71.40
28763;DHT22;15918;51.270;6.522;2024-02-14T01:10:16;11.60;71.50
28763;DHT22;15918;51.270;6.522;2024-02-14T01:12:43;11.60;71.50
28763;DHT22;15918;51.270;6.522;2024-02-14T01:15:09;11.60;71.50
28763;DHT22;15918;51.270;6.522;2024-02-14T01:17:35;11.60;71.50
28763;DHT22;15918;51.270;6.522;2024-02-14T01:20:01;11.60;71.40
28763;DHT22;15918;51.270;6.522;2024-02-14T01:22:28;11.60;71.70
28763;DHT22;15918;51.270;6.522;2024-02-14T01:24:53;11.60;71.70
28763;DHT22;15918;51.270;6.522;2024-02-14T01:27:19;11.60;71.80
28763;DHT22;15918;51.270;6.522;2024-02-14T01:29:48;11.60;71.90
28763;DHT22;15918;51.270;6.522;2024-02-14T01:32:13;11.60;71.80
28763;DHT22;15918;51.270;6.522;2024-02-14T01:34:39;11.60;71.80
28763;DHT22;15918;51.270;6.522;2024-02-14T01:37:04;11.60;71.90
28763;DHT22;15918;51.270;6.522;2024-02-14T01:39:31;11.60;72.10
28763;DHT22;15918;51.270;6.522;2024-02-14T01:41:56;11.60;72.10
28763;DHT22;15918;51.270;6.522;2024-02-14T01:44:22;11.60;72.10
28763;DHT22;15918;51.270;6.522;2024-02-14T01:46:47;11.60;72.30
28763;DHT22;15918;51.270;6.522;2024-02-14T01:49:15;11.60;72.30
28763;DHT22;15918;51.270;6.522;2024-02-14T01:51:43;11.60;72.40
28763;DHT22;15918;51.270;6.522;2024-02-14T01:54:12;11.60;72.60
28763;DHT22;15918;51.270;6.522;2024-02-14T01:56:38;11.60;72.60
28763;DHT22;15918;51.270;6.522;2024-02-14T01:59:05;11.60;72.70
28763;DHT22;15918;51.270;6.522;2024-02-14T02:01:32;11.70;72.70
28763;DHT22;15918;51.270;6.522;2024-02-14T02:03:58;11.60;72.70
28763;DHT22;15918;51.270;6.522;2024-02-14T02:06:24;11.60;72.70
28763;DHT22;15918;51.270;6.522;2024-02-14T02:08:51;11.60;72.70
28763;DHT22;15918;51.270;6.522;2024-02-14T02:11:17;11.60;72.70
28763;DHT22;15918;51.270;6.522;2024-02-14T02:13:43;11.70;72.80
28763;DHT22;15918;51.270;6.522;2024-02-14T02:16:09;11.70;73.00
28763;DHT22;15918;51.270;6.522;2024-02-14T02:18:34;11.60;72.90
28763;DHT22;15918;51.270;6.522;2024-02-14T02:21:00;11.60;72.90
28763;DHT22;15918;51.270;6.522;2024-02-14T02:23:33;11.70;73.00
28763;DHT22;15918;51.270;6.522;2024-02-14T02:25:59;11.70;73.10
28763;DHT22;15918;51.270;6.522;2024-02-14T02:28:25;11.70;73.20
28763;DHT22;15918;51.270;6.522;2024-02-14T02:30:50;11.70;73.20
28763;DHT22;15918;51.270;6.522;2024-02-14T02:33:18;11.70;73.20
28763;DHT22;15918;51.270;6.522;2024-02-14T02:35:43;11.70;73.30
28763;DHT22;15918;51.270;6.522;2024-02-14T02:38:11;11.70;73.30
28763;DHT22;15918;51.270;6.522;2024-02-14T02:40:36;11.70;73.30
28763;DHT22;15918;51.270;6.522;2024-02-14T02:43:02;11.70;73.40
28763;DHT22;15918;51.270;6.522;2024-02-14T02:45:28;11.70;73.40
28763;DHT22;15918;51.270;6.522;2024-02-14T02:47:54;11.70;73.30
28763;DHT22;15918;51.270;6.522;2024-02-14T02:50:21;11.70;73.50
28763;DHT22;15918;51.270;6.522;2024-02-14T02:52:47;11.70;73.70
28763;DHT22;15918;51.270;6.522;2024-02-14T02:55:13;11.70;73.70
28763;DHT22;15918;51.270;6.522;2024-02-14T02:57:42;11.70;73.90
28763;DHT22;15918;51.270;6.522;2024-02-14T03:00:09;11.70;74.20
28763;DHT22;15918;51.270;6.522;2024-02-14T03:02:37;11.70;74.20
28763;DHT22;15918;51.270;6.522;2024-02-14T03:05:05;11.70;74.30
28763;DHT22;15918;51.270;6.522;2024-02-14T03:07:36;11.70;74.30
28763;DHT22;15918;51.270;6.522;2024-02-14T03:10:02;11.70;74.40
28763;DHT22;15918;51.270;6.522;2024-02-14T03:12:29;11.70;74.40
28763;DHT22;15918;51.270;6.522;2024-02-14T03:14:56;11.70;74.60
28763;DHT22;15918;51.270;6.522;2024-02-14T03:17:23;11.70;74.70
28763;DHT22;15918;51.270;6.522;2024-02-14T03:19:49;11.70;74.80
28763;DHT22;15918;51.270;6.522;2024-02-14T03:22:17;11.70;75.00
28763;DHT22;15918;51.270;6.522;2024-02-14T03:24:44;11.70;75.00
28763;DHT22;15918;51.270;6.522;2024-02-14T03:27:12;11.70;74.80
28763;DHT22;15918;51.270;6.522;2024-02-14T03:29:37;11.70;74.90
28763;DHT22;15918;51.270;6.522;2024-02-14T03:32:05;11.70;75.40
28763;DHT22;15918;51.270;6.522;2024-02-14T03:34:31;11.70;75.00
28763;DHT22;15918;51.270;6.522;2024-02-14T03:36:59;11.70;75.10
28763;DHT22;15918;51.270;6.522;2024-02-14T03:39:25;11.70;76.00
28763;DHT22;15918;51.270;6.522;2024-02-14T03:41:51;11.80;75.30
28763;DHT22;15918;51.270;6.522;2024-02-14T03:44:18;11.70;75.20
28763;DHT22;15918;51.270;6.522;2024-02-14T03:46:43;11.70;75.30
28763;DHT22;15918;51.270;6.522;2024-02-14T03:49:09;11.70;75.40
28763;DHT22;15918;51.270;6.522;2024-02-14T03:51:34;11.70;75.40
28763;DHT22;15918;51.270;6.522;2024-02-14T03:54:00;11.80;75.40
28763;DHT22;15918;51.270;6.522;2024-02-14T03:56:26;11.80;75.40
28763;DHT22;15918;51.270;6.522;2024-02-14T03:58:51;11.70;75.50
28763;DHT22;15918;51.270;6.522;2024-02-14T04:01:17;11.80;75.50
28763;DHT22;15918;51.270;6.522;2024-02-14T04:03:42;11.80;75.60
28763;DHT22;15918;51.270;6.522;2024-02-14T04:06:08;11.80;75.60
28763;DHT22;15918;51.270;6.522;2024-02-14T04:08:34;11.80;75.60
28763;DHT22;15918;51.270;6.522;2024-02-14T04:11:00;11.80;75.70
28763;DHT22;15918;51.270;6.522;2024-02-14T04:13:26;11.80;75.70
28763;DHT22;15918;51.270;6.522;2024-02-14T04:15:51;11.80;75.80
28763;DHT22;15918;51.270;6.522;2024-02-14T04:18:17;11.80;76.40
28763;DHT22;15918;51.270;6.522;2024-02-14T04:20:45;11.80;75.80
28763;DHT22;15918;51.270;6.522;2024-02-14T04:23:11;11.80;75.90
28763;DHT22;15918;51.270;6.522;2024-02-14T04:25:36;11.80;75.90
28763;DHT22;15918;51.270;6.522;2024-02-14T04:28:05;11.80;75.90
28763;DHT22;15918;51.270;6.522;2024-02-14T04:30:31;11.80;75.90
28763;DHT22;15918;51.270;6.522;2024-02-14T04:32:56;11.80;75.90
28763;DHT22;15918;51.270;6.522;2024-02-14T04:35:22;11.80;75.90
28763;DHT22;15918;51.270;6.522;2024-02-14T04:37:48;11.80;75.90
28763;DHT22;15918;51.270;6.522;2024-02-14T04:40:15;11.80;76.00
28763;DHT22;15918;51.270;6.522;2024-02-14T04:42:43;11.80;75.90
28763;DHT22;15918;51.270;6.522;2024-02-14T04:45:09;11.80;75.90
28763;DHT22;15918;51.270;6.522;2024-02-14T04:47:35;11.80;75.90
28763;DHT22;15918;51.270;6.522;2024-02-14T04:50:01;11.80;75.90
28763;DHT22;15918;51.270;6.522;2024-02-14T04:52:29;11.80;75.90
28763;DHT22;15918;51.270;6.522;2024-02-14T04:54:55;11.80;75.90
28763;DHT22;15918;51.270;6.522;2024-02-14T04:57:22;11.80;75.90
28763;DHT22;15918;51.270;6.522;2024-02-14T04:59:47;11.90;76.10
28763;DHT22;15918;51.270;6.522;2024-02-14T05:02:13;11.90;76.00
28763;DHT22;15918;51.270;6.522;2024-02-14T05:04:38;11.90;76.00
28763;DHT22;15918;51.270;6.522;2024-02-14T05:07:04;11.80;76.10
28763;DHT22;15918;51.270;6.522;2024-02-14T05:09:30;11.90;76.20
28763;DHT22;15918;51.270;6.522;2024-02-14T05:11:56;11.90;76.30
28763;DHT22;15918;51.270;6.522;2024-02-14T05:14:22;11.90;76.30
28763;DHT22;15918;51.270;6.522;2024-02-14T05:16:47;11.90;76.40
28763;DHT22;15918;51.270;6.522;2024-02-14T05:19:13;11.90;76.40
28763;DHT22;15918;51.270;6.522;2024-02-14T05:21:38;11.90;76.40
28763;DHT22;15918;51.270;6.522;2024-02-14T05:24:05;11.90;76.50
28763;DHT22;15918;51.270;6.522;2024-02-14T05:26:31;11.90;76.60
28763;DHT22;15918;51.270;6.522;2024-02-14T05:28:57;11.90;76.90
28763;DHT22;15918;51.270;6.522;2024-02-14T05:31:22;11.90;77.00
28763;DHT22;15918;51.270;6.522;2024-02-14T05:33:49;11.90;77.00
28763;DHT22;15918;51.270;6.522;2024-02-14T05:36:14;11.90;77.10
28763;DHT22;15918;51.270;6.522;2024-02-14T05:38:40;11.90;77.30
28763;DHT22;15918;51.270;6.522;2024-02-14T05:41:05;11.90;77.30
28763;DHT22;15918;51.270;6.522;2024-02-14T05:43:33;11.90;77.30
28763;DHT22;15918;51.270;6.522;2024-02-14T05:45:59;11.90;77.40
28763;DHT22;15918;51.270;6.522;2024-02-14T05:48:25;11.90;77.30
28763;DHT22;15918;51.270;6.522;2024-02-14T05:50:51;11.90;77.20
28763;DHT22;15918;51.270;6.522;2024-02-14T05:53:17;11.90;77.40
28763;DHT22;15918;51.270;6.522;2024-02-14T05:55:43;11.90;77.60
28763;DHT22;15918;51.270;6.522;2024-02-14T05:58:08;11.90;77.50
28763;DHT22;15918;51.270;6.522;2024-02-14T06:00:34;11.90;77.50
28763;DHT22;15918;51.270;6.522;2024-02-14T06:03:00;11.90;77.40
28763;DHT22;15918;51.270;6.522;2024-02-14T06:05:25;11.90;77.40
28763;DHT22;15918;51.270;6.522;2024-02-14T06:07:51;11.90;77.40
28763;DHT22;15918;51.270;6.522;2024-02-14T06:10:17;11.90;77.40
28763;DHT22;15918;51.270;6.522;2024-02-14T06:12:43;11.90;77.40
28763;DHT22;15918;51.270;6.522;2024-02-14T06:15:09;11.90;77.60
28763;DHT22;15918;51.270;6.522;2024-02-14T06:17:35;11.90;77.50
28763;DHT22;15918;51.270;6.522;2024-02-14T06:20:00;11.90;77.60
28763;DHT22;15918;51.270;6.522;2024-02-14T06:22:31;11.90;77.70
28763;DHT22;15918;51.270;6.522;2024-02-14T06:24:57;11.90;77.80
28763;DHT22;15918;51.270;6.522;2024-02-14T06:27:23;11.90;77.80
28763;DHT22;15918;51.270;6.522;2024-02-14T06:29:49;11.90;77.70
28763;DHT22;15918;51.270;6.522;2024-02-14T06:32:14;11.90;77.80
28763;DHT22;15918;51.270;6.522;2024-02-14T06:34:40;11.90;77.80
28763;DHT22;15918;51.270;6.522;2024-02-14T06:37:06;11.90;77.90
28763;DHT22;15918;51.270;6.522;2024-02-14T06:39:31;12.00;78.00
28763;DHT22;15918;51.270;6.522;2024-02-14T06:41:57;12.00;77.90
28763;DHT22;15918;51.270;6.522;2024-02-14T06:44:23;11.90;77.70
28763;DHT22;15918;51.270;6.522;2024-02-14T06:46:49;12.00;77.80
28763;DHT22;15918;51.270;6.522;2024-02-14T06:49:16;11.90;77.80
28763;DHT22;15918;51.270;6.522;2024-02-14T06:51:41;12.00;78.00
28763;DHT22;15918;51.270;6.522;2024-02-14T06:54:07;12.00;78.00
28763;DHT22;15918;51.270;6.522;2024-02-14T06:56:33;12.00;78.00
28763;DHT22;15918;51.270;6.522;2024-02-14T06:58:59;11.90;78.10
28763;DHT22;15918;51.270;6.522;2024-02-14T07:01:29;12.00;78.10
28763;DHT22;15918;51.270;6.522;2024-02-14T07:03:55;12.00;78.20
28763;DHT22;15918;51.270;6.522;2024-02-14T07:06:20;12.00;78.20
28763;DHT22;15918;51.270;6.522;2024-02-14T07:08:46;12.00;78.10
28763;DHT22;15918;51.270;6.522;2024-02-14T07:11:13;12.00;78.10
28763;DHT22;15918;51.270;6.522;2024-02-14T07:13:38;12.00;78.10
28763;DHT22;15918;51.270;6.522;2024-02-14T07:16:04;12.00;78.20
28763;DHT22;15918;51.270;6.522;2024-02-14T07:18:30;12.00;78.10
28763;DHT22;15918;51.270;6.522;2024-02-14T07:20:55;12.00;78.20
28763;DHT22;15918;51.270;6.522;2024-02-14T07:23:21;12.00;78.00
28763;DHT22;15918;51.270;6.522;2024-02-14T07:25:47;12.00;78.20
28763;DHT22;15918;51.270;6.522;2024-02-14T07:28:12;12.00;78.10
28763;DHT22;15918;51.270;6.522;2024-02-14T07:30:38;12.00;78.30
28763;DHT22;15918;51.270;6.522;2024-02-14T07:33:03;12.00;79.10
28763;DHT22;15918;51.270;6.522;2024-02-14T07:35:29;12.00;78.40
28763;DHT22;15918;51.270;6.522;2024-02-14T07:37:55;12.00;78.40
28763;DHT22;15918;51.270;6.522;2024-02-14T07:40:21;12.00;78.50
28763;DHT22;15918;51.270;6.522;2024-02-14T07:42:47;12.10;78.50
28763;DHT22;15918;51.270;6.522;2024-02-14T07:45:13;12.10;78.40
28763;DHT22;15918;51.270;6.522;2024-02-14T07:47:39;12.00;78.30
28763;DHT22;15918;51.270;6.522;2024-02-14T07:50:06;12.10;78.40
28763;DHT22;15918;51.270;6.522;2024-02-14T07:52:32;12.10;78.40
28763;DHT22;15918;51.270;6.522;2024-02-14T07:54:57;12.10;78.40
28763;DHT22;15918;51.270;6.522;2024-02-14T07:57:23;12.10;78.50
28763;DHT22;15918;51.270;6.522;2024-02-14T07:59:50;12.10;78.50
28763;DHT22;15918;51.270;6.522;2024-02-14T08:02:16;12.10;78.50
28763;DHT22;15918;51.270;6.522;2024-02-14T08:04:41;12.10;78.30
28763;DHT22;15918;51.270;6.522;2024-02-14T08:07:07;12.10;78.20
28763;DHT22;15918;51.270;6.522;2024-02-14T08:09:34;12.10;78.20
28763;DHT22;15918;51.270;6.522;2024-02-14T08:11:59;12.10;78.30
28763;DHT22;15918;51.270;6.522;2024-02-14T08:14:25;12.10;78.30
28763;DHT22;15918;51.270;6.522;2024-02-14T08:16:51;12.10;78.60
28763;DHT22;15918;51.270;6.522;2024-02-14T08:19:17;12.10;78.70
28763;DHT22;15918;51.270;6.522;2024-02-14T08:21:44;12.20;78.90
28763;DHT22;15918;51.270;6.522;2024-02-14T08:24:09;12.20;78.90
28763;DHT22;15918;51.270;6.522;2024-02-14T08:26:35;12.20;79.00
28763;DHT22;15918;51.270;6.522;2024-02-14T08:29:01;12.20;79.00
28763;DHT22;15918;51.270;6.522;2024-02-14T08:31:26;12.20;79.00
28763;DHT22;15918;51.270;6.522;2024-02-14T08:33:52;12.20;79.00
28763;DHT22;15918;51.270;6.522;2024-02-14T08:36:19;12.20;79.00
28763;DHT22;15918;51.270;6.522;2024-02-14T08:38:44;12.20;79.00
28763;DHT22;15918;51.270;6.522;2024-02-14T08:41:10;12.20;78.90
28763;DHT22;15918;51.270;6.522;2024-02-14T08:43:36;12.20;78.80
28763;DHT22;15918;51.270;6.522;2024-02-14T08:46:01;12.20;79.00
28763;DHT22;15918;51.270;6.522;2024-02-14T08:48:28;12.20;79.00
28763;DHT22;15918;51.270;6.522;2024-02-14T08:50:55;12.30;78.90
28763;DHT22;15918;51.270;6.522;2024-02-14T08:53:21;12.30;78.90
28763;DHT22;15918;51.270;6.522;2024-02-14T08:55:47;12.30;79.00
28763;DHT22;15918;51.270;6.522;2024-02-14T08:58:12;12.30;79.10
28763;DHT22;15918;51.270;6.522;2024-02-14T09:00:38;12.30;79.00
28763;DHT22;15918;51.270;6.522;2024-02-14T09:03:05;12.30;79.00
28763;DHT22;15918;51.270;6.522;2024-02-14T09:05:31;12.30;79.00
28763;DHT22;15918;51.270;6.522;2024-02-14T09:07:56;12.30;79.10
28763;DHT22;15918;51.270;6.522;2024-02-14T09:10:22;12.30;79.10
28763;DHT22;15918;51.270;6.522;2024-02-14T09:12:48;12.40;79.20
28763;DHT22;15918;51.270;6.522;2024-02-14T09:15:14;12.40;79.20
28763;DHT22;15918;51.270;6.522;2024-02-14T09:17:40;12.40;78.90
28763;DHT22;15918;51.270;6.522;2024-02-14T09:20:08;12.40;78.90
28763;DHT22;15918;51.270;6.522;2024-02-14T09:22:38;12.40;78.80
28763;DHT22;15918;51.270;6.522;2024-02-14T09:25:04;12.40;78.70
28763;DHT22;15918;51.270;6.522;2024-02-14T09:27:31;12.40;78.80
28763;DHT22;15918;51.270;6.522;2024-02-14T09:29:56;12.40;78.80
28763;DHT22;15918;51.270;6.522;2024-02-14T09:32:22;12.50;78.80
28763;DHT22;15918;51.270;6.522;2024-02-14T09:34:48;12.40;78.80
28763;DHT22;15918;51.270;6.522;2024-02-14T09:37:13;12.40;78.80
28763;DHT22;15918;51.270;6.522;2024-02-14T09:39:39;12.50;78.90
28763;DHT22;15918;51.270;6.522;2024-02-14T09:42:13;12.50;78.80
28763;DHT22;15918;51.270;6.522;2024-02-14T09:44:41;12.50;78.60
28763;DHT22;15918;51.270;6.522;2024-02-14T09:47:08;12.50;78.70
28763;DHT22;15918;51.270;6.522;2024-02-14T09:49:35;12.40;79.20
28763;DHT22;15918;51.270;6.522;2024-02-14T09:52:02;12.50;79.00
28763;DHT22;15918;51.270;6.522;2024-02-14T09:54:29;12.50;78.70
28763;DHT22;15918;51.270;6.522;2024-02-14T09:56:57;12.50;78.60
28763;DHT22;15918;51.270;6.522;2024-02-14T09:59:24;12.60;78.60
28763;DHT22;15918;51.270;6.522;2024-02-14T10:01:49;12.50;78.40
28763;DHT22;15918;51.270;6.522;2024-02-14T10:04:17;12.60;78.40
28763;DHT22;15918;51.270;6.522;2024-02-14T10:06:44;12.60;78.50
28763;DHT22;15918;51.270;6.522;2024-02-14T10:09:10;12.60;78.50
28763;DHT22;15918;51.270;6.522;2024-02-14T10:11:37;12.60;78.40
28763;DHT22;15918;51.270;6.522;2024-02-14T10:14:04;12.60;78.50
28763;DHT22;15918;51.270;6.522;2024-02-14T10:16:30;12.60;78.50
28763;DHT22;15918;51.270;6.522;2024-02-14T10:18:55;12.70;78.50
28763;DHT22;15918;51.270;6.522;2024-02-14T10:21:23;12.60;78.50
28763;DHT22;15918;51.270;6.522;2024-02-14T10:23:51;12.60;78.80
28763;DHT22;15918;51.270;6.522;2024-02-14T10:26:18;12.70;79.20
28763;DHT22;15918;51.270;6.522;2024-02-14T10:28:45;12.70;79.30
28763;DHT22;15918;51.270;6.522;2024-02-14T10:31:11;12.70;79.40
28763;DHT22;15918;51.270;6.522;2024-02-14T10:33:38;12.70;79.40
28763;DHT22;15918;51.270;6.522;2024-02-14T10:36:07;12.70;79.60
28763;DHT22;15918;51.270;6.522;2024-02-14T10:38:34;12.70;79.50
28763;DHT22;15918;51.270;6.522;2024-02-14T10:41:00;12.70;79.70
28763;DHT22;15918;51.270;6.522;2024-02-14T10:43:27;12.80;79.90
28763;DHT22;15918;51.270;6.522;2024-02-14T10:45:54;12.80;79.90
28763;DHT22;15918;51.270;6.522;2024-02-14T10:48:22;12.80;79.80
28763;DHT22;15918;51.270;6.522;2024-02-14T10:50:53;12.80;79.90
28763;DHT22;15918;51.270;6.522;2024-02-14T10:53:20;12.80;79.70
28763;DHT22;15918;51.270;6.522;2024-02-14T10:55:49;12.80;79.80
28763;DHT22;15918;51.270;6.522;2024-02-14T10:58:16;12.90;79.90
28763;DHT22;15918;51.270;6.522;2024-02-14T11:00:43;13.00;79.90
28763;DHT22;15918;51.270;6.522;2024-02-14T11:03:09;13.00;79.90
28763;DHT22;15918;51.270;6.522;2024-02-14T11:05:45;12.90;79.80
28763;DHT22;15918;51.270;6.522;2024-02-14T11:08:18;12.90;79.70
28763;DHT22;15918;51.270;6.522;2024-02-14T11:10:55;12.90;80.60
28763;DHT22;15918;51.270;6.522;2024-02-14T11:13:28;13.00;79.90
28763;DHT22;15918;51.270;6.522;2024-02-14T11:15:57;13.00;80.00
28763;DHT22;15918;51.270;6.522;2024-02-14T11:18:26;13.00;80.10
28763;DHT22;15918;51.270;6.522;2024-02-14T11:20:52;13.00;79.90
28763;DHT22;15918;51.270;6.522;2024-02-14T11:23:22;13.00;80.00
28763;DHT22;15918;51.270;6.522;2024-02-14T11:25:47;13.00;80.00
28763;DHT22;15918;51.270;6.522;2024-02-14T11:28:23;13.00;80.10
28763;DHT22;15918;51.270;6.522;2024-02-14T11:30:49;13.10;80.10
28763;DHT22;15918;51.270;6.522;2024-02-14T11:33:19;13.10;80.00
28763;DHT22;15918;51.270;6.522;2024-02-14T11:35:53;13.10;79.90
28763;DHT22;15918;51.270;6.522;2024-02-14T11:38:20;13.20;79.80
28763;DHT22;15918;51.270;6.522;2024-02-14T11:40:46;13.20;79.90
28763;DHT22;15918;51.270;6.522;2024-02-14T11:43:17;13.20;79.90
28763;DHT22;15918;51.270;6.522;2024-02-14T11:45:43;13.20;79.90
28763;DHT22;15918;51.270;6.522;2024-02-14T11:48:14;13.20;79.70
28763;DHT22;15918;51.270;6.522;2024-02-14T11:50:41;13.30;79.80
28763;DHT22;15918;51.270;6.522;2024-02-14T11:53:07;13.20;79.70
28763;DHT22;15918;51.270;6.522;2024-02-14T11:55:39;13.30;79.80
28763;DHT22;15918;51.270;6.522;2024-02-14T11:58:13;13.30;79.80
28763;DHT22;15918;51.270;6.522;2024-02-14T12:00:43;13.30;79.80
28763;DHT22;15918;51.270;6.522;2024-02-14T12:03:17;13.30;79.90
28763;DHT22;15918;51.270;6.522;2024-02-14T12:05:43;13.30;80.20
28763;DHT22;15918;51.270;6.522;2024-02-14T12:08:09;13.30;80.40
28763;DHT22;15918;51.270;6.522;2024-02-14T12:10:36;13.30;80.60
28763;DHT22;15918;51.270;6.522;2024-02-14T12:13:10;13.40;80.80
28763;DHT22;15918;51.270;6.522;2024-02-14T12:15:41;13.40;80.60
28763;DHT22;15918;51.270;6.522;2024-02-14T12:18:10;13.40;80.70
28763;DHT22;15918;51.270;6.522;2024-02-14T12:20:41;13.40;80.70
28763;DHT22;15918;51.270;6.522;2024-02-14T12:23:06;13.40;80.70
28763;DHT22;15918;51.270;6.522;2024-02-14T12:25:33;13.40;80.80
28763;DHT22;15918;51.270;6.522;2024-02-14T12:27:59;13.40;80.80
28763;DHT22;15918;51.270;6.522;2024-02-14T12:30:47;13.40;80.80
28763;DHT22;15918;51.270;6.522;2024-02-14T12:33:14;13.50;80.50
28763;DHT22;15918;51.270;6.522;2024-02-14T12:35:44;13.40;80.80
28763;DHT22;15918;51.270;6.522;2024-02-14T12:38:10;13.40;80.70
28763;DHT22;15918;51.270;6.522;2024-02-14T12:40:36;13.40;80.70
28763;DHT22;15918;51.270;6.522;2024-02-14T12:43:02;13.40;80.70
28763;DHT22;15918;51.270;6.522;2024-02-14T12:45:28;13.40;80.60
28763;DHT22;15918;51.270;6.522;2024-02-14T12:47:54;13.50;80.50
28763;DHT22;15918;51.270;6.522;2024-02-14T12:50:19;13.50;80.50
28763;DHT22;15918;51.270;6.522;2024-02-14T12:52:48;13.50;80.50
28763;DHT22;15918;51.270;6.522;2024-02-14T12:55:14;13.50;80.50
28763;DHT22;15918;51.270;6.522;2024-02-14T12:57:39;13.50;80.50
28763;DHT22;15918;51.270;6.522;2024-02-14T13:00:06;13.50;80.60
28763;DHT22;15918;51.270;6.522;2024-02-14T13:02:34;13.50;80.50
28763;DHT22;15918;51.270;6.522;2024-02-14T13:04:59;13.60;80.50
28763;DHT22;15918;51.270;6.522;2024-02-14T13:07:27;13.50;80.50
28763;DHT22;15918;51.270;6.522;2024-02-14T13:09:53;13.60;80.50
28763;DHT22;15918;51.270;6.522;2024-02-14T13:12:20;13.60;80.40
28763;DHT22;15918;51.270;6.522;2024-02-14T13:14:46;13.60;80.30
28763;DHT22;15918;51.270;6.522;2024-02-14T13:17:12;13.60;80.30
28763;DHT22;15918;51.270;6.522;2024-02-14T13:19:37;13.60;80.40
28763;DHT22;15918;51.270;6.522;2024-02-14T13:22:04;13.60;80.30
28763;DHT22;15918;51.270;6.522;2024-02-14T13:24:30;13.60;80.20
28763;DHT22;15918;51.270;6.522;2024-02-14T13:26:56;13.70;80.30
28763;DHT22;15918;51.270;6.522;2024-02-14T13:29:23;13.60;80.30
28763;DHT22;15918;51.270;6.522;2024-02-14T13:31:52;13.60;80.40
28763;DHT22;15918;51.270;6.522;2024-02-14T13:34:18;13.70;80.60
28763;DHT22;15918;51.270;6.522;2024-02-14T13:36:46;13.70;80.80
28763;DHT22;15918;51.270;6.522;2024-02-14T13:39:13;13.60;80.80
28763;DHT22;15918;51.270;6.522;2024-02-14T13:41:39;13.70;80.90
28763;DHT22;15918;51.270;6.522;2024-02-14T13:44:08;13.70;81.10
28763;DHT22;15918;51.270;6.522;2024-02-14T13:46:34;13.70;81.20
28763;DHT22;15918;51.270;6.522;2024-02-14T13:49:00;13.70;81.30
28763;DHT22;15918;51.270;6.522;2024-02-14T13:51:26;13.70;81.30
28763;DHT22;15918;51.270;6.522;2024-02-14T13:53:52;13.70;81.40
28763;DHT22;15918;51.270;6.522;2024-02-14T13:56:18;13.70;81.50
28763;DHT22;15918;51.270;6.522;2024-02-14T13:58:46;13.70;81.50
28763;DHT22;15918;51.270;6.522;2024-02-14T14:01:12;13.70;81.70
28763;DHT22;15918;51.270;6.522;2024-02-14T14:03:38;13.70;81.60
28763;DHT22;15918;51.270;6.522;2024-02-14T14:06:04;13.70;81.70
28763;DHT22;15918;51.270;6.522;2024-02-14T14:08:34;13.70;81.80
28763;DHT22;15918;51.270;6.522;2024-02-14T14:11:03;13.70;81.90
28763;DHT22;15918;51.270;6.522;2024-02-14T14:13:29;13.70;82.10
28763;DHT22;15918;51.270;6.522;2024-02-14T14:16:01;13.70;82.10
28763;DHT22;15918;51.270;6.522;2024-02-14T14:18:26;13.70;82.30
28763;DHT22;15918;51.270;6.522;2024-02-14T14:20:52;13.70;82.40
28763;DHT22;15918;51.270;6.522;2024-02-14T14:23:18;13.70;82.50
28763;DHT22;15918;51.270;6.522;2024-02-14T14:25:44;13.70;83.30
28763;DHT22;15918;51.270;6.522;2024-02-14T14:28:10;13.70;82.60
28763;DHT22;15918;51.270;6.522;2024-02-14T14:30:36;13.70;82.80
28763;DHT22;15918;51.270;6.522;2024-02-14T14:33:02;13.70;82.60
28763;DHT22;15918;51.270;6.522;2024-02-14T14:35:28;13.70;82.60
28763;DHT22;15918;51.270;6.522;2024-02-14T14:37:54;13.70;83.40
28763;DHT22;15918;51.270;6.522;2024-02-14T14:40:20;13.70;82.70
28763;DHT22;15918;51.270;6.522;2024-02-14T14:42:46;13.70;83.50
28763;DHT22;15918;51.270;6.522;2024-02-14T14:45:12;13.70;82.90
28763;DHT22;15918;51.270;6.522;2024-02-14T14:47:38;13.70;82.80
28763;DHT22;15918;51.270;6.522;2024-02-14T14:50:04;13.70;82.80
28763;DHT22;15918;51.270;6.522;2024-02-14T14:52:31;13.70;82.90
28763;DHT22;15918;51.270;6.522;2024-02-14T14:54:56;13.70;83.00
28763;DHT22;15918;51.270;6.522;2024-02-14T14:57:22;13.70;82.90
28763;DHT22;15918;51.270;6.522;2024-02-14T14:59:48;13.70;82.90
28763;DHT22;15918;51.270;6.522;2024-02-14T15:02:14;13.70;83.00
28763;DHT22;15918;51.270;6.522;2024-02-14T15:04:39;13.70;83.00
28763;DHT22;15918;51.270;6.522;2024-02-14T15:07:06;13.70;83.00
28763;DHT22;15918;51.270;6.522;2024-02-14T15:09:32;13.70;83.10
28763;DHT22;15918;51.270;6.522;2024-02-14T15:11:57;13.70;83.10
28763;DHT22;15918;51.270;6.522;2024-02-14T15:14:23;13.70;83.10
28763;DHT22;15918;51.270;6.522;2024-02-14T15:16:48;13.70;83.10
28763;DHT22;15918;51.270;6.522;2024-02-14T15:19:14;13.70;83.10
28763;DHT22;15918;51.270;6.522;2024-02-14T15:21:40;13.70;83.00
28763;DHT22;15918;51.270;6.522;2024-02-14T15:24:06;13.70;82.90
28763;DHT22;15918;51.270;6.522;2024-02-14T15:26:32;13.70;83.00